Latest Weather Observations for Camden

IDN60901

Issued at 7:31 pm EDT Wednesday 25 November 2020 (issued every 10 minutes, with the page automatically refreshed every 10 minutes)

About weather observations | Map of Sydney area stations | Latest observations for Sydney area | Other Formats
Station Details ID: 068192 Name: CAMDEN AIRPORT AWS Lat: -34.04 Lon: 150.69 Height: 73.9 m
Data from the previous 72 hours. | See also: Recent months at Camden
Date/Time
EDT
Temp
°C
App
Temp
°C
Dew
Point
°C
Rel
Hum
%
Delta-T
°C
Wind Press
QNH
hPa
Press
MSL
hPa
Rain since
9am
mm
Dir  Spd
km/h
Gust
km/h
Spd
kts
Gust
kts
25/07:30pm 21.6 20.0 13.8 61 4.5 ENE 15 22 8 12 1011.5 1011.3 0.0
25/07:00pm 22.7 20.7 14.0 58 5.1 ENE 17 22 9 12 1010.9 1010.7 0.0
25/06:30pm 23.7 21.3 13.8 53 5.8 ENE 19 28 10 15 1010.7 1010.5 0.0
25/06:00pm 25.0 23.5 14.2 51 6.4 NE 15 26 8 14 1010.6 1010.4 0.0
25/05:30pm 25.9 24.8 14.4 49 6.9 NE 13 20 7 11 1010.5 1010.3 0.0
25/05:00pm 25.0 23.5 13.2 48 6.9 NNE 13 20 7 11 1010.7 1010.5 0.0
25/04:30pm 25.9 24.7 14.1 48 7.0 NNE 13 20 7 11 1011.1 1010.9 0.0
25/04:00pm 25.4 23.7 13.6 48 7.0 NNE 15 24 8 13 1011.3 1011.1 0.0
25/03:30pm 25.5 24.7 15.2 53 6.2 NE 13 30 7 16 1011.7 1011.5 0.0
25/03:00pm 24.6 23.0 15.0 55 5.8 NE 17 28 9 15 1012.2 1012.0 0.0
25/02:30pm 24.2 22.3 14.3 54 5.9 NE 17 28 9 15 1012.5 1012.3 0.0
25/02:00pm 24.6 22.7 14.1 52 6.2 NNE 17 28 9 15 1012.8 1012.6 0.0
25/01:30pm 24.0 22.8 14.1 54 5.8 NNE 13 19 7 10 1013.4 1013.2 0.0
25/01:00pm 23.2 22.8 14.2 57 5.3 NNW 9 17 5 9 1013.9 1013.7 0.0
25/12:30pm 22.3 21.6 14.4 61 4.7 NE 11 17 6 9 1014.4 1014.2 0.0
25/12:00pm 21.2 21.0 14.8 67 3.8 N 9 15 5 8 1014.8 1014.6 0.0
25/11:30am 20.6 21.0 15.2 71 3.2 NNW 7 15 4 8 1015.0 1014.8 0.0
25/11:00am 19.1 20.3 16.0 82 1.8 WNW 4 9 2 5 1015.3 1015.1 0.0
25/10:32am 18.0 18.0 16.2 89 1.1 N 11 13 6 7 1015.7 1015.4 0.0
25/10:30am 18.1 18.1 16.3 89 1.1 N 11 15 6 8 1015.7 1015.4 0.0
25/10:09am 19.2 18.7 14.9 76 2.5 NNW 11 15 6 8 1015.6 1015.3 0.0
25/10:00am 19.8 19.3 14.8 73 2.9 N 11 17 6 9 1015.6 1015.3 0.0
25/09:30am 19.1 19.1 15.2 78 2.3 NNW 9 13 5 7 1015.7 1015.4 0.0
25/09:00am 18.5 18.0 15.9 85 1.5 NNE 13 17 7 9 1015.8 1015.5 0.0
25/08:30am 17.5 17.9 16.2 92 0.8 NNE 9 13 5 7 1015.6 1015.3 0.0
25/08:21am 17.5 17.8 16.9 96 0.4 N 11 13 6 7 1015.7 1015.4 0.0
25/08:04am 17.1 18.0 16.1 94 0.6 NNE 6 7 3 4 1015.6 1015.3 0.0
25/08:00am 17.2 17.9 16.2 94 0.6 NE 7 9 4 5 1015.6 1015.3 0.0
25/07:52am 17.1 17.6 15.6 91 0.9 ENE 7 11 4 6 1015.6 1015.3 0.0
25/07:46am 17.4 18.0 15.7 90 1.0 ENE 7 13 4 7 1015.5 1015.2 0.0
25/07:39am 17.5 19.3 15.5 88 1.2 CALM 0 11 0 6 1015.5 1015.2 0.0
25/07:30am 17.5 19.4 15.8 90 1.0 CALM 0 0 0 0 1015.3 1015.1 0.0
25/07:00am 16.8 18.7 15.7 93 0.6 CALM 0 0 0 0 1014.9 1014.7 0.0
25/06:46am 16.6 18.4 15.5 93 0.6 CALM 0 0 0 0 1014.8 1014.6 0.0
25/06:30am 16.4 18.1 15.3 93 0.6 CALM 0 6 0 3 1014.6 1014.4 0.0
25/06:00am 16.4 18.2 15.4 94 0.6 CALM 0 0 0 0 1014.3 1014.1 0.0
25/05:30am 16.3 18.1 15.5 95 0.5 CALM 0 0 0 0 1013.9 1013.7 0.0
25/05:00am 16.3 18.1 15.5 95 0.5 CALM 0 0 0 0 1013.8 1013.6 0.0
25/04:30am 16.2 18.0 15.4 95 0.5 CALM 0 0 0 0 1013.7 1013.5 0.0
25/04:00am 16.2 18.0 15.6 96 0.4 CALM 0 0 0 0 1013.6 1013.4 0.0
25/03:30am 16.3 17.2 16.0 98 0.2 SSW 6 7 3 4 1013.6 1013.4 0.0
25/03:00am 16.2 17.1 16.0 99 0.1 SSE 6 9 3 5 1013.7 1013.5 0.0
25/02:30am 16.3 18.2 15.8 97 0.3 CALM 0 0 0 0 1013.9 1013.7 0.0
25/02:00am 16.5 18.5 16.0 97 0.3 CALM 0 0 0 0 1014.1 1013.9 0.0
25/01:30am 16.5 17.4 16.0 97 0.3 SSW 6 9 3 5 1014.3 1014.1 0.0
25/01:00am 16.9 16.9 15.1 89 1.0 SSE 9 13 5 7 1014.6 1014.4 0.0
25/12:30am 18.0 19.4 14.3 79 2.1 CALM 0 0 0 0 1014.7 1014.5 0.0
25/12:00am 18.0 19.4 14.3 79 2.1 CALM 0 0 0 0 1015.0 1014.8 0.0
 
Date/Time
EDT
Temp
°C
App
Temp
°C
Dew
Point
°C
Rel
Hum
%
Delta-T
°C
Wind Press
QNH
hPa
Press
MSL
hPa
Rain since
9am
mm
Dir  Spd
km/h
Gust
km/h
Spd
kts
Gust
kts
24/11:30pm 18.0 19.3 14.1 78 2.2 CALM 0 0 0 0 1015.0 1014.8 0.0
24/11:00pm 18.2 18.4 14.1 77 2.4 SSE 6 9 3 5 1014.9 1014.7 0.0
24/10:30pm 18.2 19.4 13.9 76 2.5 CALM 0 0 0 0 1014.8 1014.6 0.0
24/10:00pm 18.2 19.4 13.9 76 2.5 CALM 0 0 0 0 1014.6 1014.4 0.0
24/09:30pm 18.2 19.0 13.7 75 2.6 SE 2 7 1 4 1014.6 1014.4 0.0
24/09:00pm 18.4 18.2 13.5 73 2.8 SE 7 11 4 6 1014.3 1014.1 0.0
24/08:30pm 18.6 18.3 13.2 71 3.1 ESE 7 11 4 6 1014.0 1013.8 0.0
24/08:00pm 18.6 18.2 13.0 70 3.2 ESE 7 13 4 7 1013.5 1013.3 0.0
24/07:30pm 18.9 17.6 12.4 66 3.6 ESE 11 17 6 9 1012.8 1012.6 0.0
24/07:00pm 19.7 18.1 12.7 64 4.0 E 13 19 7 10 1012.2 1012.0 0.0
24/06:30pm 20.1 18.4 12.3 61 4.4 E 13 19 7 10 1011.7 1011.5 0.0
24/06:00pm 20.8 18.6 12.0 57 4.9 ESE 15 20 8 11 1011.0 1010.8 0.0
24/05:30pm 21.7 20.2 12.0 54 5.5 ESE 11 15 6 8 1010.6 1010.4 0.0
24/05:00pm 22.0 20.5 12.0 53 5.6 ESE 11 17 6 9 1010.6 1010.4 0.0
24/04:30pm 22.7 20.3 11.4 49 6.3 ESE 15 20 8 11 1010.2 1010.0 0.0
24/04:00pm 23.0 21.1 12.9 53 5.8 SE 15 24 8 13 1010.5 1010.3 0.0
24/03:30pm 22.1 19.6 12.4 54 5.5 SE 17 22 9 12 1010.5 1010.3 0.0
24/03:00pm 22.9 21.6 12.5 52 6.0 ESE 11 15 6 8 1010.7 1010.5 0.0
24/02:30pm 24.7 23.2 13.0 48 6.8 SSE 13 19 7 10 1010.7 1010.5 0.0
24/02:00pm 23.9 21.6 11.9 47 6.8 S 15 20 8 11 1010.8 1010.6 0.0
24/01:30pm 24.5 23.1 12.1 46 7.1 ESE 11 20 6 11 1011.2 1011.0 0.0
24/01:00pm 23.1 21.5 11.5 48 6.5 SSE 11 20 6 11 1011.5 1011.3 0.0
24/12:30pm 22.4 20.5 11.8 51 6.0 SSE 13 19 7 10 1011.4 1011.2 0.0
24/12:00pm 23.4 22.1 12.4 50 6.3 SE 11 17 6 9 1011.3 1011.1 0.0
24/11:30am 21.9 20.2 12.5 55 5.3 SE 13 24 7 13 1011.7 1011.5 0.0
24/11:00am 22.0 20.5 13.1 57 5.1 SE 13 22 7 12 1012.1 1011.9 0.0
24/10:30am 20.9 20.2 13.1 61 4.5 SE 9 19 5 10 1012.5 1012.3 0.0
24/10:00am 20.2 19.7 13.9 67 3.6 SSE 9 13 5 7 1012.5 1012.3 0.0
24/09:30am 19.7 18.3 13.4 67 3.6 SE 13 19 7 10 1012.3 1012.1 0.0
24/09:00am 19.5 19.5 13.7 69 3.3 SSE 6 9 3 5 1012.2 1012.0 0.2
24/08:30am 19.0 19.8 14.7 76 2.5 SE 4 7 2 4 1012.0 1011.8 0.2
24/08:00am 19.1 20.3 15.0 77 2.4 ESE 2 9 1 5 1011.5 1011.3 0.2
24/07:30am 16.8 19.0 16.5 98 0.2 CALM 0 0 0 0 1011.4 1011.2 0.2
24/07:00am 15.5 17.3 15.5 100 0.0 CALM 0 0 0 0 1011.3 1011.1 0.2
24/06:30am 14.8 16.0 14.8 100 0.0 NNE 2 9 1 5 1011.0 1010.8 0.2
24/06:00am 13.7 14.9 13.7 100 0.0 CALM 0 0 0 0 1010.6 1010.4 0.2
24/05:30am 13.3 14.3 13.3 100 0.0 CALM 0 0 0 0 1010.1 1009.9 0.2
24/05:00am 14.1 15.0 14.1 100 0.0 NNE 2 7 1 4 1009.5 1009.3 0.2
24/04:30am 14.0 15.3 14.0 100 0.0 CALM 0 0 0 0 1009.1 1008.9 0.2
24/04:05am 14.3 15.6 14.1 99 0.1 CALM 0 0 0 0 1009.0 1008.8 0.2
24/04:00am 14.1 15.3 13.9 99 0.1 CALM 0 0 0 0 1009.0 1008.8 0.2
24/03:40am 14.8 16.3 14.6 99 0.1 CALM 0 0 0 0 1009.1 1008.9 0.2
24/03:30am 14.6 16.0 14.4 99 0.1 CALM 0 0 0 0 1009.0 1008.8 0.2
24/03:00am 14.9 16.4 14.7 99 0.1 CALM 0 0 0 0 1009.2 1009.0 0.2
24/02:30am 14.9 16.3 14.4 97 0.3 CALM 0 0 0 0 1009.5 1009.3 0.2
24/02:00am 15.8 17.6 15.6 99 0.1 CALM 0 0 0 0 1009.6 1009.4 0.2
24/01:30am 15.4 16.0 15.2 99 0.1 NNW 6 9 3 5 1009.7 1009.5 0.2
24/01:00am 16.0 17.6 15.0 94 0.6 CALM 0 0 0 0 1009.3 1009.1 0.2
24/12:30am 16.4 18.1 15.3 93 0.6 CALM 0 0 0 0 1009.4 1009.2 0.2
24/12:00am 16.4 18.1 15.1 92 0.8 CALM 0 0 0 0 1009.4 1009.2 0.2
 
Date/Time
EDT
Temp
°C
App
Temp
°C
Dew
Point
°C
Rel
Hum
%
Delta-T
°C
Wind Press
QNH
hPa
Press
MSL
hPa
Rain since
9am
mm
Dir  Spd
km/h
Gust
km/h
Spd
kts
Gust
kts
23/11:30pm 16.8 18.2 14.4 86 1.4 CALM 0 6 0 3 1009.3 1009.1 0.2
23/11:00pm 17.9 19.5 14.8 82 1.8 CALM 0 0 0 0 1008.9 1008.7 0.2
23/10:30pm 18.2 18.2 15.1 82 1.8 SSE 9 15 5 8 1008.7 1008.5 0.2
23/10:00pm 17.9 19.7 16.4 91 0.9 E 2 11 1 6 1008.4 1008.2 0.2
23/09:30pm 18.3 20.2 15.7 85 1.5 CALM 0 0 0 0 1007.8 1007.6 0.2
23/09:00pm 19.2 21.2 16.1 82 1.9 CALM 0 0 0 0 1007.2 1007.0 0.2
23/08:30pm 20.0 20.6 15.8 77 2.5 S 7 9 4 5 1006.5 1006.3 0.2
23/08:00pm 21.0 21.2 15.8 72 3.1 S 9 13 5 7 1006.1 1005.9 0.2
23/07:30pm 21.3 21.0 16.5 74 2.9 SSE 13 17 7 9 1005.5 1005.3 0.2
23/07:00pm 21.2 23.8 17.6 80 2.2 CALM 0 0 0 0 1005.2 1004.9 0.2
23/06:30pm 20.5 22.0 18.1 86 1.5 N 7 11 4 6 1005.1 1004.8 0.2
23/06:00pm 21.7 22.4 16.2 71 3.3 SSW 7 11 4 6 1004.9 1004.6 0.2
23/05:30pm 21.6 20.3 15.9 70 3.4 W 17 22 9 12 1004.8 1004.5 0.2
23/05:00pm 24.2 21.6 13.1 50 6.5 SW 19 24 10 13 1005.1 1004.8 0.0
23/04:30pm 23.7 19.3 11.7 47 6.8 SSW 26 39 14 21 1005.1 1004.8 0.0
23/04:20pm 24.6 19.8 11.5 44 7.4 SW 28 48 15 26 1005.0 1004.7 0.0
23/04:00pm 27.1 23.6 13.4 42 8.1 WSW 24 37 13 20 1004.5 1004.2 0.0
23/03:30pm 27.1 24.7 13.8 44 7.9 WNW 19 28 10 15 1004.2 1003.9 0.0
23/03:00pm 25.7 25.8 14.5 50 6.7 NNW 7 11 4 6 1004.6 1004.3 0.0
23/02:30pm 25.3 25.1 13.5 48 6.9 NW 7 13 4 7 1004.8 1004.5 0.0
23/02:00pm 24.9 23.9 13.5 49 6.7 WNW 11 19 6 10 1004.0 1003.7 0.0
23/01:30pm 24.5 20.9 14.3 53 6.1 NNW 26 37 14 20 1004.6 1004.3 0.0
23/01:00pm 25.0 23.3 16.2 58 5.4 NNW 20 32 11 17 1006.1 1005.9 0.0
23/12:30pm 25.3 25.1 17.7 62 4.8 N 15 24 8 13 1006.3 1006.1 0.0
23/12:00pm 24.3 25.5 20.0 77 2.8 NNE 13 15 7 8 1007.1 1006.9 0.0
23/11:30am 24.2 27.8 19.7 76 2.9 CALM 0 0 0 0 1007.3 1007.1 0.0
23/11:00am 23.7 26.3 19.2 76 2.9 NNE 4 11 2 6 1007.5 1007.3 0.0
23/10:30am 23.5 26.0 19.0 76 2.9 WNW 4 9 2 5 1008.3 1008.1 0.0
23/10:00am 22.9 24.6 19.3 80 2.3 N 9 13 5 7 1008.0 1007.8 0.0
23/09:30am 22.8 22.9 19.2 80 2.3 NNW 17 20 9 11 1008.3 1008.1 0.0
23/09:00am 22.9 24.6 20.1 84 1.8 NNW 11 17 6 9 1008.5 1008.3 1.8
23/08:30am 21.6 24.2 20.4 93 0.8 NW 7 9 4 5 1008.6 1008.4 1.8
23/08:00am 20.9 24.7 20.2 96 0.5 CALM 0 0 0 0 1008.7 1008.5 1.8
23/07:30am 20.2 24.0 20.2 100 0.0 CALM 0 7 0 4 1009.0 1008.8 1.8
23/07:00am 20.1 23.5 20.1 100 0.0 ENE 2 7 1 4 1009.3 1009.1 1.8
23/06:30am 19.8 22.1 19.8 100 0.0 E 7 9 4 5 1009.2 1009.0 1.6
23/06:00am 19.8 23.0 19.8 100 0.0 SE 2 9 1 5 1009.7 1009.5 1.6
23/05:30am 20.0 23.6 19.8 99 0.1 CALM 0 2 0 1 1010.1 1009.9 1.4
23/05:00am 19.8 22.9 19.6 99 0.1 E 2 9 1 5 1010.4 1010.2 1.4
23/04:30am 20.0 22.5 19.0 94 0.6 ENE 4 9 2 5 1010.7 1010.5 1.2
23/04:00am 21.1 22.0 18.3 84 1.8 S 11 17 6 9 1010.5 1010.3 0.4
23/03:30am 21.6 21.2 19.0 85 1.6 WSW 19 32 10 17 1010.9 1010.7 0.0
23/03:20am 20.7 21.0 20.7 100 0.0 SW 20 32 11 17 1010.4 1010.2 0.0
23/03:00am 19.0 22.3 19.0 100 0.0 CALM 0 0 0 0 1008.7 1008.5 0.0
23/02:46am 19.0 22.3 19.0 100 0.0 CALM 0 0 0 0 1008.6 1008.4 0.0
23/02:31am 19.0 22.3 19.0 100 0.0 CALM 0 0 0 0 1008.7 1008.5 0.0
23/02:30am 19.0 22.3 19.0 100 0.0 CALM 0 0 0 0 1008.7 1008.5 0.0
23/02:00am 18.9 21.7 18.9 100 0.0 SSW 2 7 1 4 1009.0 1008.8 0.0
23/01:37am 18.9 22.1 18.9 100 0.0 CALM 0 0 0 0 1009.1 1008.9 0.0
23/01:35am 19.0 22.3 19.0 100 0.0 CALM 0 0 0 0 1009.1 1008.9 0.0
23/01:33am 19.1 22.4 19.1 100 0.0 CALM 0 0 0 0 1009.1 1008.9 0.0
23/01:32am 19.2 22.5 19.2 100 0.0 CALM 0 0 0 0 1009.2 1009.0 0.0
23/01:30am 19.0 22.3 19.0 100 0.0 CALM 0 0 0 0 1009.3 1009.1 0.0
23/01:00am 18.9 22.1 18.9 100 0.0 CALM 0 0 0 0 1009.9 1009.7 0.0
23/12:30am 19.3 22.7 19.3 100 0.0 CALM 0 7 0 4 1010.4 1010.2 0.0
23/12:24am 19.1 22.3 18.9 99 0.1 CALM 0 0 0 0 1010.6 1010.4 0.0
23/12:00am 19.7 23.3 19.7 100 0.0 CALM 0 0 0 0 1011.1 1010.9 0.0
 
Date/Time
EDT
Temp
°C
App
Temp
°C
Dew
Point
°C
Rel
Hum
%
Delta-T
°C
Wind Press
QNH
hPa
Press
MSL
hPa
Rain since
9am
mm
Dir  Spd
km/h
Gust
km/h
Spd
kts
Gust
kts
22/11:39pm 20.1 23.8 19.9 99 0.1 CALM 0 0 0 0 1011.1 1010.9 0.0
22/11:36pm 20.1 23.8 19.9 99 0.1 CALM 0 0 0 0 1011.2 1011.0 0.0
22/11:30pm 20.2 23.9 20.0 99 0.1 CALM 0 0 0 0 1011.2 1011.0 0.0
22/11:07pm 20.1 23.6 19.6 97 0.3 CALM 0 0 0 0 1011.3 1011.1 0.0
22/11:00pm 20.3 23.8 19.6 96 0.4 CALM 0 0 0 0 1011.4 1011.2 0.0
22/10:30pm 20.6 24.5 20.3 98 0.2 CALM 0 0 0 0 1011.5 1011.3 0.0
22/10:00pm 21.1 24.8 19.9 93 0.8 CALM 0 0 0 0 1011.6 1011.4 0.0
22/09:30pm 21.6 25.2 19.7 89 1.2 CALM 0 0 0 0 1011.7 1011.5 0.0
22/09:00pm 22.5 26.2 19.9 85 1.7 CALM 0 0 0 0 1011.7 1011.5 0.0
22/08:30pm 23.6 27.2 19.7 79 2.5 CALM 0 0 0 0 1011.7 1011.5 0.0
22/08:00pm 24.6 28.2 19.7 74 3.2 CALM 0 0 0 0 1011.9 1011.7 0.0

Latest Capital City Observations: Canberra | Sydney | Melbourne | Brisbane | Adelaide | Perth | Hobart | Darwin

Other formats

Comma delimited format used in spreadsheet applications
http://www.bom.gov.au/fwo/IDN60901/IDN60901.94755.axf

JavaScript Object Notation format (JSON) in row-major order
http://www.bom.gov.au/fwo/IDN60901/IDN60901.94755.json

Data quality

Most of these data are generated automatically and are frequently updated. Quality checks on data are not normally performed. It is possible for incorrect values to appear. Refer to information at About Latest Weather Observations and please check the disclaimer before using these data.